createdAt,value
2022-07-28T00:01:09.164Z,16.70
2022-07-28T00:03:35.979Z,16.80
2022-07-28T00:06:03.067Z,16.90
2022-07-28T00:08:29.985Z,16.90
2022-07-28T00:10:57.048Z,16.80
2022-07-28T00:13:24.140Z,16.80
2022-07-28T00:15:51.220Z,16.70
2022-07-28T00:18:18.346Z,16.40
2022-07-28T00:20:45.278Z,16.40
2022-07-28T00:23:12.347Z,16.50
2022-07-28T00:25:39.324Z,16.40
2022-07-28T00:28:06.388Z,16.40
2022-07-28T00:30:33.456Z,16.30
2022-07-28T00:33:00.483Z,16.10
2022-07-28T00:35:30.798Z,16.10
2022-07-28T00:37:59.405Z,16.00
2022-07-28T00:40:46.947Z,15.90
2022-07-28T00:43:14.180Z,16.00
2022-07-28T00:45:41.522Z,16.00
2022-07-28T00:48:09.324Z,15.90
2022-07-28T00:50:39.522Z,15.90
2022-07-28T00:53:08.818Z,15.70
2022-07-28T00:56:02.731Z,15.60
2022-07-28T00:58:23.014Z,15.60
2022-07-28T01:00:49.703Z,15.60
2022-07-28T01:03:16.788Z,15.50
2022-07-28T01:05:53.329Z,15.50
2022-07-28T01:08:27.257Z,15.60
2022-07-28T01:11:11.828Z,15.50
2022-07-28T01:14:10.720Z,15.50
2022-07-28T01:16:45.874Z,15.50
2022-07-28T01:19:41.030Z,15.50
2022-07-28T01:22:11.180Z,15.50
2022-07-28T01:24:51.130Z,15.40
2022-07-28T01:27:41.726Z,15.50
2022-07-28T01:30:39.230Z,15.20
2022-07-28T01:33:35.943Z,15.20
2022-07-28T01:36:15.354Z,15.30
2022-07-28T01:38:44.063Z,15.20
2022-07-28T01:41:17.819Z,15.30
2022-07-28T01:43:48.017Z,15.30
2022-07-28T01:46:16.588Z,15.30
2022-07-28T01:48:46.487Z,15.30
2022-07-28T01:51:15.604Z,15.30
2022-07-28T01:53:44.685Z,15.30
2022-07-28T01:56:15.607Z,15.20
2022-07-28T01:58:44.412Z,15.10
2022-07-28T02:01:12.788Z,15.10
2022-07-28T02:03:40.857Z,15.20
2022-07-28T02:06:08.840Z,15.30
2022-07-28T02:08:36.625Z,15.30
2022-07-28T02:11:22.538Z,15.30
2022-07-28T02:13:51.920Z,15.30
2022-07-28T02:16:24.747Z,14.90
2022-07-28T02:18:55.252Z,14.80
2022-07-28T02:21:24.982Z,14.80
2022-07-28T02:23:52.312Z,14.70
2022-07-28T02:26:24.065Z,14.70
2022-07-28T02:28:53.834Z,14.60
2022-07-28T02:31:22.644Z,14.60
2022-07-28T02:34:00.199Z,14.60
2022-07-28T02:36:34.872Z,14.60
2022-07-28T02:39:07.541Z,14.60
2022-07-28T02:41:39.912Z,14.60
2022-07-28T02:44:18.346Z,14.50
2022-07-28T02:46:49.102Z,14.50
2022-07-28T02:49:30.848Z,14.40
2022-07-28T02:51:59.430Z,14.40
2022-07-28T02:54:28.813Z,14.50
2022-07-28T02:56:58.451Z,14.40
2022-07-28T02:59:27.460Z,14.40
2022-07-28T03:01:54.984Z,14.40
2022-07-28T03:04:42.666Z,14.40
2022-07-28T03:07:10.837Z,14.30
2022-07-28T03:09:43.744Z,14.30
2022-07-28T03:12:11.219Z,14.50
2022-07-28T03:14:38.900Z,14.50
2022-07-28T03:17:05.818Z,14.50
2022-07-28T03:19:33.108Z,14.40
2022-07-28T03:21:59.947Z,14.40
2022-07-28T03:24:30.887Z,14.40
2022-07-28T03:27:22.367Z,14.50
2022-07-28T03:29:54.223Z,14.30
2022-07-28T03:32:23.764Z,14.20
2022-07-28T03:34:52.368Z,14.10
2022-07-28T03:37:27.459Z,14.10
2022-07-28T03:39:57.950Z,14.00
2022-07-28T03:42:27.159Z,14.10
2022-07-28T03:44:54.781Z,14.20
2022-07-28T03:47:24.996Z,14.20
2022-07-28T03:49:51.908Z,14.10
2022-07-28T03:52:18.963Z,13.90
2022-07-28T03:54:45.995Z,14.00
2022-07-28T03:57:14.266Z,13.90
2022-07-28T03:59:41.055Z,13.90
2022-07-28T04:02:08.041Z,13.80
2022-07-28T04:04:34.980Z,13.80
2022-07-28T04:07:02.948Z,13.90
2022-07-28T04:09:29.919Z,13.90
2022-07-28T04:11:56.997Z,13.90
2022-07-28T04:14:24.765Z,13.90
2022-07-28T04:16:52.801Z,13.90
2022-07-28T04:19:19.713Z,14.00
2022-07-28T04:21:46.875Z,14.20
2022-07-28T04:24:14.167Z,14.30
2022-07-28T04:26:41.251Z,14.30
2022-07-28T04:29:11.253Z,14.30
2022-07-28T04:31:38.317Z,14.40
2022-07-28T04:34:05.247Z,14.50
2022-07-28T04:36:32.823Z,14.40
2022-07-28T04:38:59.583Z,14.30
2022-07-28T04:41:27.247Z,14.20
2022-07-28T04:43:54.451Z,14.30
2022-07-28T04:46:21.363Z,14.40
2022-07-28T04:48:48.481Z,14.40
2022-07-28T04:51:15.484Z,14.60
2022-07-28T04:53:42.560Z,14.60
2022-07-28T04:56:09.600Z,14.70
2022-07-28T04:58:36.584Z,14.80
2022-07-28T05:01:03.852Z,14.70
2022-07-28T05:03:36.031Z,14.70
2022-07-28T05:06:03.628Z,14.80
2022-07-28T05:08:30.500Z,14.80
2022-07-28T05:10:57.620Z,14.90
2022-07-28T05:13:28.847Z,14.90
2022-07-28T05:15:58.618Z,14.90
2022-07-28T05:18:25.748Z,14.80
2022-07-28T05:20:52.768Z,14.80
2022-07-28T05:23:19.743Z,14.90
2022-07-28T05:25:46.880Z,14.90
2022-07-28T05:28:13.877Z,14.90
2022-07-28T05:30:40.617Z,15.00
2022-07-28T05:33:07.562Z,15.20
2022-07-28T05:35:35.528Z,15.30
2022-07-28T05:38:04.383Z,15.30
2022-07-28T05:40:34.421Z,15.60
2022-07-28T05:43:01.530Z,15.90
2022-07-28T05:45:28.687Z,16.00
2022-07-28T05:47:55.567Z,16.20
2022-07-28T05:50:23.002Z,16.30
2022-07-28T05:52:51.216Z,16.10
2022-07-28T05:55:18.652Z,16.00
2022-07-28T05:57:46.329Z,16.00
2022-07-28T06:03:03.147Z,15.80
2022-07-28T06:05:31.717Z,15.90
2022-07-28T06:07:59.589Z,16.10
2022-07-28T06:10:28.080Z,16.20
2022-07-28T06:12:56.240Z,16.20
2022-07-28T06:15:25.791Z,16.30
2022-07-28T06:17:55.340Z,16.00
2022-07-28T06:20:23.691Z,16.10
2022-07-28T06:22:54.068Z,16.20
2022-07-28T06:25:22.783Z,16.10
2022-07-28T06:27:53.072Z,16.20
2022-07-28T06:30:20.500Z,16.40
2022-07-28T06:32:48.607Z,16.80
2022-07-28T06:35:17.474Z,17.40
2022-07-28T06:37:45.425Z,17.80
2022-07-28T06:40:13.240Z,18.00
2022-07-28T06:42:44.335Z,17.80
2022-07-28T06:45:19.606Z,17.90
2022-07-28T06:47:49.795Z,18.10
2022-07-28T06:50:25.887Z,17.90
2022-07-28T06:52:59.102Z,17.90
2022-07-28T06:55:34.384Z,19.10
2022-07-28T06:58:04.019Z,20.00
2022-07-28T07:00:31.461Z,21.20
2022-07-28T07:03:00.407Z,21.50
2022-07-28T07:05:29.932Z,22.20
2022-07-28T07:07:56.861Z,22.70
2022-07-28T07:10:24.120Z,22.70
2022-07-28T07:12:50.962Z,22.20
2022-07-28T07:15:17.900Z,22.60
2022-07-28T07:17:44.924Z,22.90
2022-07-28T07:20:14.150Z,23.30
2022-07-28T07:22:47.621Z,22.60
2022-07-28T07:25:18.722Z,21.90
2022-07-28T07:27:46.388Z,22.70
2022-07-28T07:30:14.617Z,22.80
2022-07-28T07:32:41.951Z,22.70
2022-07-28T07:35:09.734Z,22.70
2022-07-28T07:37:36.623Z,23.90
2022-07-28T07:40:05.279Z,23.70
2022-07-28T07:42:32.006Z,24.00
2022-07-28T07:44:58.919Z,25.00
2022-07-28T07:47:26.469Z,24.40
2022-07-28T07:49:53.580Z,23.10
2022-07-28T07:52:20.598Z,23.10
2022-07-28T07:54:47.601Z,22.20
2022-07-28T07:57:14.668Z,22.20
2022-07-28T07:59:41.791Z,21.80
2022-07-28T08:02:09.202Z,22.00
2022-07-28T08:04:37.327Z,22.20
2022-07-28T08:07:05.777Z,22.40
2022-07-28T08:09:33.722Z,22.20
2022-07-28T08:12:00.805Z,21.80
2022-07-28T08:14:30.952Z,22.50
2022-07-28T08:16:59.267Z,22.90
2022-07-28T08:19:26.651Z,22.50
2022-07-28T08:21:56.632Z,22.10
2022-07-28T08:24:32.630Z,21.80
2022-07-28T08:27:02.643Z,22.60
2022-07-28T08:29:29.510Z,22.90
2022-07-28T08:31:57.144Z,24.20
2022-07-28T08:34:31.061Z,24.70
2022-07-28T08:37:03.885Z,25.50
2022-07-28T08:39:32.643Z,25.10
2022-07-28T08:42:06.647Z,24.20
2022-07-28T08:44:55.058Z,24.10
2022-07-28T08:47:22.259Z,24.10
2022-07-28T08:49:51.153Z,23.60
2022-07-28T08:52:21.059Z,22.80
2022-07-28T08:54:49.471Z,22.30
2022-07-28T08:57:32.420Z,22.20
2022-07-28T08:59:59.390Z,21.90
2022-07-28T09:02:28.913Z,22.30
2022-07-28T09:04:57.984Z,22.60
2022-07-28T09:07:26.757Z,22.40
2022-07-28T09:09:57.317Z,22.60
2022-07-28T09:12:30.013Z,23.10
2022-07-28T09:14:57.191Z,23.00
2022-07-28T09:17:24.286Z,23.70
2022-07-28T09:19:51.324Z,24.30
2022-07-28T09:22:18.238Z,25.50
2022-07-28T09:24:45.795Z,26.30
2022-07-28T09:27:14.736Z,26.30
2022-07-28T09:29:46.339Z,25.80
2022-07-28T09:32:14.937Z,27.00
2022-07-28T09:34:43.062Z,27.90
2022-07-28T09:37:27.129Z,27.50
2022-07-28T09:39:59.039Z,28.00
2022-07-28T09:42:26.224Z,25.80
2022-07-28T09:45:24.571Z,24.50
2022-07-28T09:48:13.532Z,24.80
2022-07-28T09:50:43.591Z,24.80
2022-07-28T09:53:27.318Z,24.80
2022-07-28T09:56:00.611Z,24.30
2022-07-28T09:58:30.737Z,24.20
2022-07-28T10:01:11.557Z,23.70
2022-07-28T10:03:43.341Z,23.10
2022-07-28T10:06:24.277Z,22.70
2022-07-28T10:08:52.066Z,22.30
2022-07-28T10:11:24.574Z,22.30
2022-07-28T10:14:02.846Z,22.20
2022-07-28T10:16:33.008Z,22.40
2022-07-28T10:19:02.543Z,22.50
2022-07-28T10:21:31.564Z,22.40
2022-07-28T10:24:04.975Z,21.90
2022-07-28T10:26:33.118Z,22.00
2022-07-28T10:29:03.652Z,22.10
2022-07-28T10:31:52.403Z,22.20
2022-07-28T10:34:35.104Z,22.30
2022-07-28T10:37:04.790Z,22.50
2022-07-28T10:39:41.072Z,22.80
2022-07-28T10:42:15.079Z,23.70
2022-07-28T10:44:43.470Z,24.70
2022-07-28T10:47:18.577Z,26.50
2022-07-28T10:49:48.904Z,29.20
2022-07-28T10:55:38.034Z,28.40
2022-07-28T10:58:14.426Z,28.90
2022-07-28T11:00:56.719Z,27.60
2022-07-28T11:03:43.809Z,28.60
2022-07-28T11:06:28.434Z,29.30
2022-07-28T11:09:19.573Z,30.00
2022-07-28T11:11:52.379Z,28.40
2022-07-28T11:14:26.366Z,28.40
2022-07-28T11:17:10.287Z,28.90
2022-07-28T11:20:01.145Z,29.00
2022-07-28T11:22:32.867Z,28.10
2022-07-28T11:25:18.955Z,26.90
2022-07-28T11:27:51.999Z,26.70
2022-07-28T11:30:19.202Z,26.70
2022-07-28T11:32:53.350Z,27.00
2022-07-28T11:35:20.658Z,26.40
2022-07-28T11:38:02.860Z,27.10
2022-07-28T11:40:33.355Z,26.40
2022-07-28T11:43:35.275Z,26.50
2022-07-28T11:46:08.211Z,26.30
2022-07-28T11:48:41.907Z,27.00
2022-07-28T11:51:10.173Z,27.30
2022-07-28T11:53:43.992Z,27.20
2022-07-28T11:56:16.007Z,27.30
2022-07-28T11:58:43.736Z,27.10
2022-07-28T12:01:18.165Z,26.50
2022-07-28T12:03:49.924Z,26.20
2022-07-28T12:06:35.703Z,26.20
2022-07-28T12:09:05.376Z,25.90
2022-07-28T12:11:34.464Z,25.60
2022-07-28T12:14:09.143Z,25.30
2022-07-28T12:16:40.012Z,25.30
2022-07-28T12:19:08.297Z,25.10
2022-07-28T12:21:56.685Z,25.10
2022-07-28T12:24:29.459Z,25.60
2022-07-28T12:27:00.617Z,25.70
2022-07-28T12:29:36.188Z,26.00
2022-07-28T12:32:09.699Z,25.70
2022-07-28T12:34:37.689Z,25.90
2022-07-28T12:37:09.445Z,26.10
2022-07-28T12:39:39.319Z,26.10
2022-07-28T12:42:12.376Z,26.10
2022-07-28T12:44:48.065Z,26.10
2022-07-28T12:47:24.328Z,26.20
2022-07-28T12:50:09.743Z,25.80
2022-07-28T12:52:37.202Z,25.70
2022-07-28T12:55:20.026Z,26.00
2022-07-28T12:57:50.924Z,26.10
2022-07-28T13:00:48.519Z,25.80
2022-07-28T13:03:29.317Z,25.10
2022-07-28T13:06:03.274Z,24.90
2022-07-28T13:08:45.187Z,24.70
2022-07-28T13:11:41.944Z,24.90
2022-07-28T13:14:02.042Z,25.00
2022-07-28T13:16:29.666Z,24.90
2022-07-28T13:18:59.364Z,25.10
2022-07-28T13:21:57.320Z,25.20
2022-07-28T13:24:26.359Z,25.00
2022-07-28T13:26:53.134Z,25.10
2022-07-28T13:29:20.279Z,25.20
2022-07-28T13:31:47.380Z,25.20
2022-07-28T13:34:15.037Z,25.30
2022-07-28T13:36:42.040Z,26.10
2022-07-28T13:39:13.818Z,26.30
2022-07-28T13:41:56.185Z,26.70
2022-07-28T13:44:28.590Z,26.40
2022-07-28T13:46:56.554Z,26.50
2022-07-28T13:49:23.783Z,26.10
2022-07-28T13:51:51.554Z,26.20
2022-07-28T13:54:22.113Z,26.20
2022-07-28T13:57:07.972Z,26.10
2022-07-28T13:59:35.489Z,26.40
2022-07-28T14:02:05.876Z,26.10
2022-07-28T14:04:46.079Z,25.40
2022-07-28T14:07:20.820Z,25.20
2022-07-28T14:09:50.533Z,25.10
2022-07-28T14:12:17.980Z,25.40
2022-07-28T14:14:48.400Z,25.80
2022-07-28T14:17:42.587Z,25.60
2022-07-28T14:20:10.014Z,25.50
2022-07-28T14:22:36.755Z,25.70
2022-07-28T14:25:04.055Z,25.40
2022-07-28T14:27:31.066Z,25.50
2022-07-28T14:29:57.963Z,25.80
2022-07-28T14:32:24.983Z,25.40
2022-07-28T14:34:53.390Z,25.20
2022-07-28T14:37:21.593Z,25.30
2022-07-28T14:39:48.505Z,25.40
2022-07-28T14:42:15.644Z,25.50
2022-07-28T14:44:42.642Z,25.30
2022-07-28T14:47:09.792Z,25.50
2022-07-28T14:49:36.963Z,25.60
2022-07-28T14:52:04.243Z,25.90
2022-07-28T14:54:33.527Z,25.20
2022-07-28T14:57:00.382Z,25.50
2022-07-28T14:59:27.403Z,25.60
2022-07-28T15:01:54.303Z,25.80
2022-07-28T15:04:21.400Z,25.80
2022-07-28T15:06:48.506Z,25.90
2022-07-28T15:09:15.522Z,25.80
2022-07-28T15:11:44.625Z,25.50
2022-07-28T15:14:12.012Z,25.60
2022-07-28T15:16:42.076Z,25.40
2022-07-28T15:19:09.385Z,25.50
2022-07-28T15:21:39.667Z,25.20
2022-07-28T15:24:08.642Z,25.00
2022-07-28T15:26:35.629Z,24.90
2022-07-28T15:29:02.587Z,24.90
2022-07-28T15:31:30.274Z,24.90
2022-07-28T15:33:58.550Z,24.70
2022-07-28T15:36:25.548Z,24.70
2022-07-28T15:38:53.483Z,24.60
2022-07-28T15:41:20.463Z,24.70
2022-07-28T15:43:47.493Z,24.50
2022-07-28T15:46:14.760Z,24.60
2022-07-28T15:48:43.939Z,25.10
2022-07-28T15:51:11.297Z,24.90
2022-07-28T15:53:39.074Z,24.80
2022-07-28T15:56:06.255Z,25.10
2022-07-28T15:58:33.385Z,25.40
2022-07-28T16:01:02.069Z,25.30
2022-07-28T16:03:30.235Z,25.20
2022-07-28T16:05:58.569Z,25.10
2022-07-28T16:08:25.591Z,25.10
2022-07-28T16:10:54.393Z,25.10
2022-07-28T16:13:28.691Z,25.20
2022-07-28T16:16:14.155Z,25.60
2022-07-28T16:18:42.585Z,25.60
2022-07-28T16:21:10.699Z,25.40
2022-07-28T16:23:37.816Z,25.00
2022-07-28T16:26:07.737Z,24.70
2022-07-28T16:28:35.678Z,24.70
2022-07-28T16:31:02.629Z,24.40
2022-07-28T16:33:33.348Z,24.40
2022-07-28T16:36:02.036Z,24.50
2022-07-28T16:38:29.028Z,24.30
2022-07-28T16:40:57.170Z,24.50
2022-07-28T16:43:23.908Z,24.70
2022-07-28T16:45:50.888Z,24.80
2022-07-28T16:48:17.642Z,24.70
2022-07-28T16:50:46.062Z,24.50
2022-07-28T16:53:13.868Z,24.70
2022-07-28T16:55:42.190Z,25.00
2022-07-28T16:58:09.263Z,25.00
2022-07-28T17:00:36.151Z,24.80
2022-07-28T17:03:03.197Z,24.70
2022-07-28T17:05:30.239Z,24.50
2022-07-28T17:07:58.259Z,24.60
2022-07-28T17:10:27.064Z,24.90
2022-07-28T17:12:55.291Z,24.90
2022-07-28T17:15:23.295Z,24.70
2022-07-28T17:17:54.463Z,24.70
2022-07-28T17:20:22.073Z,24.50
2022-07-28T17:22:49.136Z,24.40
2022-07-28T17:28:04.766Z,24.30
2022-07-28T17:30:33.064Z,24.50
2022-07-28T17:33:06.258Z,24.20
2022-07-28T17:35:36.576Z,23.90
2022-07-28T17:38:04.759Z,23.80
2022-07-28T17:40:31.497Z,23.80
2022-07-28T17:42:58.544Z,23.70
2022-07-28T17:45:25.779Z,23.80
2022-07-28T17:47:53.910Z,23.70
2022-07-28T17:50:20.943Z,23.70
2022-07-28T17:52:48.103Z,23.80
2022-07-28T17:55:57.551Z,23.60
2022-07-28T17:58:27.915Z,23.60
2022-07-28T18:00:58.045Z,23.40
2022-07-28T18:03:28.060Z,23.30
2022-07-28T18:05:55.101Z,23.30
2022-07-28T18:08:22.392Z,23.40
2022-07-28T18:10:53.651Z,23.40
2022-07-28T18:13:21.653Z,23.40
2022-07-28T18:15:49.246Z,23.30
2022-07-28T18:18:16.415Z,23.30
2022-07-28T18:20:43.241Z,23.30
2022-07-28T18:23:11.027Z,23.30
2022-07-28T18:25:40.992Z,23.60
2022-07-28T18:28:12.393Z,23.60
2022-07-28T18:30:40.193Z,23.70
2022-07-28T18:33:07.081Z,23.60
2022-07-28T18:35:34.325Z,23.40
2022-07-28T18:38:01.204Z,23.30
2022-07-28T18:40:28.895Z,23.30
2022-07-28T18:42:56.167Z,23.30
2022-07-28T18:45:24.709Z,23.40
2022-07-28T18:47:53.388Z,23.40
2022-07-28T18:50:30.231Z,23.30
2022-07-28T18:52:59.111Z,23.30
2022-07-28T18:55:26.148Z,23.30
2022-07-28T18:57:53.115Z,23.30
2022-07-28T19:00:19.975Z,23.30
2022-07-28T19:02:46.915Z,23.10
2022-07-28T19:05:14.000Z,23.00
2022-07-28T19:07:40.932Z,22.90
2022-07-28T19:10:09.516Z,22.80
2022-07-28T19:12:36.251Z,22.80
2022-07-28T19:15:03.098Z,22.70
2022-07-28T19:17:30.060Z,22.60
2022-07-28T19:19:57.039Z,22.60
2022-07-28T19:22:24.421Z,22.60
2022-07-28T19:24:52.482Z,22.60
2022-07-28T19:27:20.190Z,22.50
2022-07-28T19:29:47.362Z,22.40
2022-07-28T19:32:14.302Z,22.40
2022-07-28T19:34:42.984Z,22.40
2022-07-28T19:37:16.813Z,22.40
2022-07-28T19:39:46.051Z,22.00
2022-07-28T19:42:13.111Z,21.90
2022-07-28T19:44:41.252Z,21.90
2022-07-28T19:47:08.697Z,22.00
2022-07-28T19:49:35.476Z,21.90
2022-07-28T19:52:02.587Z,21.90
2022-07-28T19:54:29.582Z,21.90
2022-07-28T19:56:56.647Z,21.90
2022-07-28T19:59:23.820Z,21.90
2022-07-28T20:01:51.094Z,21.90
2022-07-28T20:04:18.658Z,21.80
2022-07-28T20:06:45.668Z,21.50
2022-07-28T20:09:12.860Z,21.40
2022-07-28T20:11:40.737Z,21.40
2022-07-28T20:14:07.751Z,21.20
2022-07-28T20:16:34.901Z,21.20
2022-07-28T20:19:02.741Z,21.10
2022-07-28T20:21:29.607Z,21.20
2022-07-28T20:24:06.906Z,20.90
2022-07-28T20:26:34.095Z,20.70
2022-07-28T20:29:05.805Z,20.70
2022-07-28T20:31:32.753Z,20.90
2022-07-28T20:33:59.641Z,21.00
2022-07-28T20:36:29.913Z,21.20
2022-07-28T20:38:57.257Z,21.30
2022-07-28T20:41:24.039Z,21.30
2022-07-28T20:44:11.171Z,21.30
2022-07-28T20:46:37.755Z,21.30
2022-07-28T20:49:04.849Z,21.30
2022-07-28T20:51:31.878Z,21.10
2022-07-28T20:53:58.884Z,20.80
2022-07-28T20:56:25.894Z,20.50
2022-07-28T20:58:52.986Z,20.50
2022-07-28T21:01:23.408Z,20.70
2022-07-28T21:03:50.363Z,20.60
2022-07-28T21:06:17.486Z,20.40
2022-07-28T21:08:45.007Z,20.20
2022-07-28T21:11:12.304Z,20.30
2022-07-28T21:13:39.353Z,20.50
2022-07-28T21:16:06.403Z,20.30
2022-07-28T21:18:33.456Z,20.50
2022-07-28T21:21:00.911Z,20.50
2022-07-28T21:23:27.997Z,20.60
2022-07-28T21:25:55.056Z,20.50
2022-07-28T21:28:40.712Z,20.70
2022-07-28T21:31:07.749Z,20.60
2022-07-28T21:33:34.677Z,20.60
2022-07-28T21:36:01.678Z,20.50
2022-07-28T21:38:28.670Z,20.50
2022-07-28T21:40:57.070Z,20.50
2022-07-28T21:43:24.053Z,20.40
2022-07-28T21:45:51.202Z,20.40
2022-07-28T21:48:20.007Z,20.50
2022-07-28T21:50:46.916Z,20.50
2022-07-28T21:53:17.089Z,20.60
2022-07-28T21:55:44.852Z,20.50
2022-07-28T21:58:11.656Z,20.20
2022-07-28T22:00:38.454Z,19.90
2022-07-28T22:03:05.332Z,19.50
2022-07-28T22:05:32.403Z,19.30
2022-07-28T22:07:59.319Z,19.40
2022-07-28T22:10:28.047Z,19.40
2022-07-28T22:12:54.732Z,19.60
2022-07-28T22:15:21.422Z,19.70
2022-07-28T22:17:48.289Z,19.70
2022-07-28T22:20:15.152Z,19.60
2022-07-28T22:22:42.284Z,19.50
2022-07-28T22:25:09.771Z,19.40
2022-07-28T22:27:36.636Z,19.60
2022-07-28T22:30:03.865Z,19.60
2022-07-28T22:32:31.935Z,19.70
2022-07-28T22:34:59.166Z,19.60
2022-07-28T22:37:26.174Z,19.80
2022-07-28T22:39:53.286Z,19.90
2022-07-28T22:42:20.157Z,19.90
2022-07-28T22:44:47.161Z,20.10
2022-07-28T22:47:14.245Z,20.10
2022-07-28T22:49:41.276Z,20.10
2022-07-28T22:52:08.392Z,19.90
2022-07-28T22:54:39.493Z,19.80
2022-07-28T22:57:06.874Z,19.80
2022-07-28T22:59:35.057Z,19.90
2022-07-28T23:02:07.373Z,19.90
2022-07-28T23:04:34.312Z,20.00
2022-07-28T23:07:01.315Z,19.90
2022-07-28T23:09:28.406Z,19.90
2022-07-28T23:11:56.107Z,19.90
2022-07-28T23:14:23.532Z,19.90
2022-07-28T23:16:50.722Z,19.90
2022-07-28T23:19:17.887Z,19.90
2022-07-28T23:21:45.089Z,19.90
2022-07-28T23:24:12.017Z,19.70
2022-07-28T23:26:38.895Z,19.60
2022-07-28T23:29:05.995Z,19.50
2022-07-28T23:31:33.008Z,19.40
2022-07-28T23:34:00.019Z,19.50
2022-07-28T23:36:28.010Z,19.50
2022-07-28T23:38:56.101Z,19.60
2022-07-28T23:41:22.913Z,19.10
2022-07-28T23:43:49.851Z,18.80
2022-07-28T23:46:17.007Z,18.80
2022-07-28T23:48:44.279Z,18.70
2022-07-28T23:51:11.074Z,18.80
2022-07-28T23:53:39.609Z,19.00
2022-07-28T23:56:06.855Z,19.20
2022-07-28T23:58:34.080Z,19.10
